sensor_id;sensor_type;location;lat;lon;timestamp;pressure;altitude;pressure_sealevel;temperature;humidity
55538;BME280;41383;51.418;7.286;2022-09-09T00:01:01;99180.53;;;17.15;79.07
55538;BME280;41383;51.418;7.286;2022-09-09T00:03:36;99175.97;;;17.11;79.34
55538;BME280;41383;51.418;7.286;2022-09-09T00:06:08;99171.41;;;16.88;80.27
55538;BME280;41383;51.418;7.286;2022-09-09T00:11:12;99181.94;;;16.86;80.51
55538;BME280;41383;51.418;7.286;2022-09-09T00:13:39;99169.63;;;16.92;79.75
55538;BME280;41383;51.418;7.286;2022-09-09T00:21:05;99179.50;;;16.76;80.78
55538;BME280;41383;51.418;7.286;2022-09-09T00:23:35;99171.25;;;16.76;80.39
55538;BME280;41383;51.418;7.286;2022-09-09T00:26:10;99156.13;;;16.47;81.32
55538;BME280;41383;51.418;7.286;2022-09-09T00:28:55;99158.28;;;16.67;81.16
55538;BME280;41383;51.418;7.286;2022-09-09T00:31:25;99159.47;;;16.26;82.09
55538;BME280;41383;51.418;7.286;2022-09-09T00:33:51;99155.31;;;16.37;82.45
55538;BME280;41383;51.418;7.286;2022-09-09T00:36:18;99156.16;;;16.64;81.89
55538;BME280;41383;51.418;7.286;2022-09-09T00:38:48;99147.94;;;16.82;80.55
55538;BME280;41383;51.418;7.286;2022-09-09T00:41:18;99145.66;;;16.84;80.60
55538;BME280;41383;51.418;7.286;2022-09-09T00:43:46;99150.06;;;17.03;80.31
55538;BME280;41383;51.418;7.286;2022-09-09T00:54:12;99144.41;;;17.08;80.25
55538;BME280;41383;51.418;7.286;2022-09-09T00:56:46;99149.56;;;17.01;81.54
55538;BME280;41383;51.418;7.286;2022-09-09T00:59:16;99146.50;;;17.29;80.31
55538;BME280;41383;51.418;7.286;2022-09-09T01:01:45;99145.72;;;17.20;80.41
55538;BME280;41383;51.418;7.286;2022-09-09T01:04:16;99140.22;;;17.20;80.38
55538;BME280;41383;51.418;7.286;2022-09-09T01:06:43;99144.06;;;17.10;80.56
55538;BME280;41383;51.418;7.286;2022-09-09T01:09:16;99141.81;;;17.12;80.73
55538;BME280;41383;51.418;7.286;2022-09-09T01:11:50;99142.44;;;17.00;81.60
55538;BME280;41383;51.418;7.286;2022-09-09T01:14:38;99145.41;;;17.12;80.86
55538;BME280;41383;51.418;7.286;2022-09-09T01:17:15;99144.41;;;17.08;81.02
55538;BME280;41383;51.418;7.286;2022-09-09T01:22:58;99147.78;;;16.87;81.81
55538;BME280;41383;51.418;7.286;2022-09-09T01:27:41;99149.34;;;16.53;83.28
55538;BME280;41383;51.418;7.286;2022-09-09T01:30:11;99146.72;;;16.39;83.31
55538;BME280;41383;51.418;7.286;2022-09-09T01:32:42;99145.31;;;16.59;83.57
55538;BME280;41383;51.418;7.286;2022-09-09T01:35:08;99138.59;;;16.33;85.24
55538;BME280;41383;51.418;7.286;2022-09-09T01:37:36;99145.44;;;16.45;84.40
55538;BME280;41383;51.418;7.286;2022-09-09T01:40:02;99145.31;;;16.59;83.83
55538;BME280;41383;51.418;7.286;2022-09-09T01:42:27;99151.63;;;16.51;84.82
55538;BME280;41383;51.418;7.286;2022-09-09T01:44:52;99143.50;;;16.45;84.26
55538;BME280;41383;51.418;7.286;2022-09-09T01:47:19;99137.78;;;16.24;85.61
55538;BME280;41383;51.418;7.286;2022-09-09T01:49:44;99132.34;;;16.51;85.13
55538;BME280;41383;51.418;7.286;2022-09-09T01:52:09;99144.94;;;16.34;85.11
55538;BME280;41383;51.418;7.286;2022-09-09T01:54:34;99136.00;;;16.28;85.72
55538;BME280;41383;51.418;7.286;2022-09-09T02:02:00;99141.09;;;16.53;84.53
55538;BME280;41383;51.418;7.286;2022-09-09T02:04:44;99138.00;;;16.45;84.79
55538;BME280;41383;51.418;7.286;2022-09-09T02:07:15;99140.97;;;16.17;85.89
55538;BME280;41383;51.418;7.286;2022-09-09T02:09:43;99145.16;;;16.06;86.81
55538;BME280;41383;51.418;7.286;2022-09-09T02:12:13;99143.56;;;16.14;86.23
55538;BME280;41383;51.418;7.286;2022-09-09T02:14:40;99141.72;;;16.00;86.41
55538;BME280;41383;51.418;7.286;2022-09-09T02:17:10;99137.75;;;16.15;86.41
55538;BME280;41383;51.418;7.286;2022-09-09T02:19:37;99125.84;;;15.97;86.74
55538;BME280;41383;51.418;7.286;2022-09-09T02:22:04;99132.16;;;15.97;87.04
55538;BME280;41383;51.418;7.286;2022-09-09T02:24:29;99137.06;;;16.09;86.10
55538;BME280;41383;51.418;7.286;2022-09-09T02:26:56;99138.06;;;16.05;86.49
55538;BME280;41383;51.418;7.286;2022-09-09T02:29:25;99133.06;;;15.84;87.18
55538;BME280;41383;51.418;7.286;2022-09-09T02:31:51;99139.56;;;15.88;87.20
55538;BME280;41383;51.418;7.286;2022-09-09T02:34:18;99152.81;;;15.86;86.98
55538;BME280;41383;51.418;7.286;2022-09-09T02:36:45;99142.75;;;16.13;85.90
55538;BME280;41383;51.418;7.286;2022-09-09T02:39:11;99147.22;;;16.00;85.75
55538;BME280;41383;51.418;7.286;2022-09-09T02:41:37;99147.53;;;15.98;85.90
55538;BME280;41383;51.418;7.286;2022-09-09T02:44:10;99150.69;;;16.15;84.77
55538;BME280;41383;51.418;7.286;2022-09-09T02:49:25;99143.47;;;16.37;83.84
55538;BME280;41383;51.418;7.286;2022-09-09T02:56:47;99145.13;;;16.47;83.62
55538;BME280;41383;51.418;7.286;2022-09-09T02:59:15;99143.31;;;16.33;83.79
55538;BME280;41383;51.418;7.286;2022-09-09T03:01:40;99137.81;;;16.42;83.67
55538;BME280;41383;51.418;7.286;2022-09-09T03:04:06;99140.75;;;16.45;83.11
55538;BME280;41383;51.418;7.286;2022-09-09T03:06:31;99130.25;;;16.07;84.93
55538;BME280;41383;51.418;7.286;2022-09-09T03:08:56;99139.38;;;16.25;84.49
55538;BME280;41383;51.418;7.286;2022-09-09T03:11:22;99137.00;;;16.32;84.69
55538;BME280;41383;51.418;7.286;2022-09-09T03:13:47;99130.63;;;16.14;85.17
55538;BME280;41383;51.418;7.286;2022-09-09T03:16:13;99125.66;;;15.93;86.45
55538;BME280;41383;51.418;7.286;2022-09-09T03:18:40;99123.91;;;15.97;85.83
55538;BME280;41383;51.418;7.286;2022-09-09T03:21:05;99115.25;;;16.04;85.65
55538;BME280;41383;51.418;7.286;2022-09-09T03:23:30;99116.84;;;16.05;85.33
55538;BME280;41383;51.418;7.286;2022-09-09T03:25:55;99118.00;;;15.81;86.24
55538;BME280;41383;51.418;7.286;2022-09-09T03:28:22;99119.34;;;15.93;85.29
55538;BME280;41383;51.418;7.286;2022-09-09T03:30:48;99115.22;;;15.72;86.54
55538;BME280;41383;51.418;7.286;2022-09-09T03:33:13;99120.09;;;15.75;86.27
55538;BME280;41383;51.418;7.286;2022-09-09T03:35:44;99122.34;;;15.73;86.05
55538;BME280;41383;51.418;7.286;2022-09-09T03:38:11;99115.41;;;15.76;86.38
55538;BME280;41383;51.418;7.286;2022-09-09T03:40:37;99128.66;;;16.06;85.01
55538;BME280;41383;51.418;7.286;2022-09-09T03:43:02;99117.41;;;15.93;84.98
55538;BME280;41383;51.418;7.286;2022-09-09T03:45:27;99113.31;;;16.05;84.37
55538;BME280;41383;51.418;7.286;2022-09-09T03:47:52;99120.97;;;15.94;84.86
55538;BME280;41383;51.418;7.286;2022-09-09T03:50:17;99119.25;;;16.07;84.78
55538;BME280;41383;51.418;7.286;2022-09-09T03:52:43;99117.50;;;16.02;84.90
55538;BME280;41383;51.418;7.286;2022-09-09T03:55:08;99121.41;;;15.78;85.38
55538;BME280;41383;51.418;7.286;2022-09-09T03:57:35;99123.19;;;15.83;85.43
55538;BME280;41383;51.418;7.286;2022-09-09T04:00:04;99126.56;;;16.03;84.82
55538;BME280;41383;51.418;7.286;2022-09-09T04:02:30;99122.69;;;15.81;85.33
55538;BME280;41383;51.418;7.286;2022-09-09T04:04:55;99126.84;;;15.69;86.09
55538;BME280;41383;51.418;7.286;2022-09-09T04:07:21;99129.03;;;15.58;86.81
55538;BME280;41383;51.418;7.286;2022-09-09T04:09:46;99120.78;;;15.58;86.98
55538;BME280;41383;51.418;7.286;2022-09-09T04:12:11;99122.09;;;15.61;87.11
55538;BME280;41383;51.418;7.286;2022-09-09T04:14:38;99121.00;;;15.62;86.20
55538;BME280;41383;51.418;7.286;2022-09-09T04:17:03;99123.78;;;15.71;86.80
55538;BME280;41383;51.418;7.286;2022-09-09T04:19:31;99124.94;;;15.47;87.35
55538;BME280;41383;51.418;7.286;2022-09-09T04:21:56;99117.88;;;15.55;87.24
55538;BME280;41383;51.418;7.286;2022-09-09T04:24:21;99118.75;;;15.64;87.12
55538;BME280;41383;51.418;7.286;2022-09-09T04:26:47;99124.84;;;15.61;86.58
55538;BME280;41383;51.418;7.286;2022-09-09T04:29:12;99121.34;;;15.69;86.84
55538;BME280;41383;51.418;7.286;2022-09-09T04:31:37;99112.78;;;15.39;87.21
55538;BME280;41383;51.418;7.286;2022-09-09T04:34:06;99123.63;;;15.44;87.69
55538;BME280;41383;51.418;7.286;2022-09-09T04:36:32;99120.00;;;15.58;87.11
55538;BME280;41383;51.418;7.286;2022-09-09T04:38:58;99124.00;;;15.51;87.44
55538;BME280;41383;51.418;7.286;2022-09-09T04:41:23;99120.19;;;15.61;87.01
55538;BME280;41383;51.418;7.286;2022-09-09T04:43:48;99124.75;;;15.66;86.71
55538;BME280;41383;51.418;7.286;2022-09-09T04:46:14;99121.19;;;15.66;86.44
55538;BME280;41383;51.418;7.286;2022-09-09T04:48:40;99122.34;;;15.73;85.87
55538;BME280;41383;51.418;7.286;2022-09-09T04:51:06;99130.59;;;15.50;86.68
55538;BME280;41383;51.418;7.286;2022-09-09T04:53:31;99125.34;;;15.63;86.59
55538;BME280;41383;51.418;7.286;2022-09-09T04:58:28;99128.28;;;15.67;86.62
55538;BME280;41383;51.418;7.286;2022-09-09T05:00:54;99129.75;;;15.64;85.86
55538;BME280;41383;51.418;7.286;2022-09-09T05:03:19;99124.44;;;15.76;86.08
55538;BME280;41383;51.418;7.286;2022-09-09T05:05:44;99118.53;;;15.60;86.21
55538;BME280;41383;51.418;7.286;2022-09-09T05:08:09;99120.41;;;15.74;85.75
55538;BME280;41383;51.418;7.286;2022-09-09T05:10:36;99113.75;;;15.66;86.40
55538;BME280;41383;51.418;7.286;2022-09-09T05:13:02;99116.88;;;15.50;86.84
55538;BME280;41383;51.418;7.286;2022-09-09T05:15:27;99116.69;;;15.79;86.08
55538;BME280;41383;51.418;7.286;2022-09-09T05:17:52;99124.75;;;15.66;86.23
55538;BME280;41383;51.418;7.286;2022-09-09T05:20:21;99130.34;;;15.61;86.39
55538;BME280;41383;51.418;7.286;2022-09-09T05:22:47;99129.66;;;15.87;85.65
55538;BME280;41383;51.418;7.286;2022-09-09T05:25:12;99126.84;;;15.69;85.87
55538;BME280;41383;51.418;7.286;2022-09-09T05:27:37;99124.69;;;15.57;86.71
55538;BME280;41383;51.418;7.286;2022-09-09T05:30:02;99123.59;;;15.67;86.27
55538;BME280;41383;51.418;7.286;2022-09-09T05:32:29;99122.19;;;15.79;85.84
55538;BME280;41383;51.418;7.286;2022-09-09T05:34:57;99118.94;;;15.68;86.35
55538;BME280;41383;51.418;7.286;2022-09-09T05:37:23;99125.75;;;15.79;86.18
55538;BME280;41383;51.418;7.286;2022-09-09T05:39:48;99129.56;;;15.92;85.06
55538;BME280;41383;51.418;7.286;2022-09-09T05:42:13;99127.91;;;15.91;85.41
55538;BME280;41383;51.418;7.286;2022-09-09T05:44:39;99134.00;;;16.02;84.91
55538;BME280;41383;51.418;7.286;2022-09-09T05:47:04;99125.84;;;15.97;84.62
55538;BME280;41383;51.418;7.286;2022-09-09T05:49:29;99133.88;;;15.84;85.55
55538;BME280;41383;51.418;7.286;2022-09-09T05:51:54;99129.81;;;15.82;85.60
55538;BME280;41383;51.418;7.286;2022-09-09T05:54:20;99131.19;;;15.70;86.18
55538;BME280;41383;51.418;7.286;2022-09-09T05:56:45;99135.59;;;15.71;86.02
55538;BME280;41383;51.418;7.286;2022-09-09T05:59:10;99135.59;;;15.71;86.02
55538;BME280;41383;51.418;7.286;2022-09-09T06:01:37;99133.94;;;15.70;86.30
55538;BME280;41383;51.418;7.286;2022-09-09T06:04:05;99130.09;;;15.71;86.02
55538;BME280;41383;51.418;7.286;2022-09-09T06:06:31;99142.16;;;15.93;85.65
55538;BME280;41383;51.418;7.286;2022-09-09T06:08:58;99131.91;;;15.76;85.86
55538;BME280;41383;51.418;7.286;2022-09-09T06:11:24;99137.25;;;15.81;85.98
55538;BME280;41383;51.418;7.286;2022-09-09T06:13:50;99136.75;;;15.79;85.98
55538;BME280;41383;51.418;7.286;2022-09-09T06:16:20;99140.53;;;15.92;85.94
55538;BME280;41383;51.418;7.286;2022-09-09T06:18:47;99143.09;;;15.88;85.72
55538;BME280;41383;51.418;7.286;2022-09-09T06:21:17;99137.66;;;15.97;85.59
55538;BME280;41383;51.418;7.286;2022-09-09T06:23:43;99143.28;;;15.92;85.83
55538;BME280;41383;51.418;7.286;2022-09-09T06:26:13;99141.41;;;16.02;85.86
55538;BME280;41383;51.418;7.286;2022-09-09T06:28:38;99141.72;;;16.00;85.25
55538;BME280;41383;51.418;7.286;2022-09-09T06:31:04;99134.81;;;16.03;85.08
55538;BME280;41383;51.418;7.286;2022-09-09T06:33:30;99136.91;;;16.06;85.38
55538;BME280;41383;51.418;7.286;2022-09-09T06:35:56;99131.09;;;16.07;85.11
55538;BME280;41383;51.418;7.286;2022-09-09T06:38:22;99138.06;;;16.05;85.33
55538;BME280;41383;51.418;7.286;2022-09-09T06:40:52;99137.28;;;16.22;84.80
55538;BME280;41383;51.418;7.286;2022-09-09T06:43:19;99138.28;;;16.26;84.86
55538;BME280;41383;51.418;7.286;2022-09-09T06:45:52;99140.66;;;16.10;84.48
55538;BME280;41383;51.418;7.286;2022-09-09T06:48:17;99144.78;;;15.98;85.81
55538;BME280;41383;51.418;7.286;2022-09-09T06:50:42;99145.91;;;16.38;84.70
55538;BME280;41383;51.418;7.286;2022-09-09T06:53:07;99136.75;;;16.11;84.91
55538;BME280;41383;51.418;7.286;2022-09-09T06:55:33;99140.81;;;16.05;84.81
55538;BME280;41383;51.418;7.286;2022-09-09T06:57:58;99151.25;;;16.34;83.82
55538;BME280;41383;51.418;7.286;2022-09-09T07:00:24;99143.44;;;16.19;84.56
55538;BME280;41383;51.418;7.286;2022-09-09T07:02:50;99151.63;;;16.10;84.57
55538;BME280;41383;51.418;7.286;2022-09-09T07:05:16;99156.25;;;16.32;83.64
55538;BME280;41383;51.418;7.286;2022-09-09T07:07:41;99149.09;;;16.22;84.17
55538;BME280;41383;51.418;7.286;2022-09-09T07:10:06;99152.91;;;16.04;84.34
55538;BME280;41383;51.418;7.286;2022-09-09T07:12:32;99143.78;;;15.94;84.53
55538;BME280;41383;51.418;7.286;2022-09-09T07:14:57;99160.13;;;15.99;84.12
55538;BME280;41383;51.418;7.286;2022-09-09T07:17:22;99155.78;;;15.98;83.39
55538;BME280;41383;51.418;7.286;2022-09-09T07:19:48;99162.47;;;16.15;83.63
55538;BME280;41383;51.418;7.286;2022-09-09T07:22:13;99164.41;;;16.64;82.25
55538;BME280;41383;51.418;7.286;2022-09-09T07:24:39;99164.94;;;16.75;81.92
55538;BME280;41383;51.418;7.286;2022-09-09T07:27:04;99162.97;;;16.67;82.12
55538;BME280;41383;51.418;7.286;2022-09-09T07:29:30;99171.84;;;16.64;81.67
55538;BME280;41383;51.418;7.286;2022-09-09T07:31:55;99169.22;;;16.50;81.53
55538;BME280;41383;51.418;7.286;2022-09-09T07:34:21;99166.69;;;16.53;82.13
55538;BME280;41383;51.418;7.286;2022-09-09T07:36:46;99167.28;;;16.41;81.70
55538;BME280;41383;51.418;7.286;2022-09-09T07:39:12;99173.47;;;16.56;81.39
55538;BME280;41383;51.418;7.286;2022-09-09T07:41:44;99169.59;;;16.66;81.01
55538;BME280;41383;51.418;7.286;2022-09-09T07:44:11;99178.97;;;16.56;81.07
55538;BME280;41383;51.418;7.286;2022-09-09T07:46:37;99172.66;;;16.55;81.24
55538;BME280;41383;51.418;7.286;2022-09-09T07:49:05;99170.88;;;16.51;81.77
55538;BME280;41383;51.418;7.286;2022-09-09T07:51:32;99176.66;;;16.40;81.98
55538;BME280;41383;51.418;7.286;2022-09-09T07:54:02;99172.53;;;16.69;81.00
55538;BME280;41383;51.418;7.286;2022-09-09T07:56:27;99163.47;;;16.69;80.48
55538;BME280;41383;51.418;7.286;2022-09-09T07:58:54;99166.72;;;16.80;80.00
55538;BME280;41383;51.418;7.286;2022-09-09T08:01:21;99173.38;;;16.97;79.77
55538;BME280;41383;51.418;7.286;2022-09-09T08:03:47;99164.63;;;17.03;79.06
55538;BME280;41383;51.418;7.286;2022-09-09T08:06:16;99171.91;;;16.99;78.66
55538;BME280;41383;51.418;7.286;2022-09-09T08:08:41;99171.59;;;17.10;78.19
55538;BME280;41383;51.418;7.286;2022-09-09T08:11:10;99168.53;;;17.11;78.17
55538;BME280;41383;51.418;7.286;2022-09-09T08:13:36;99170.47;;;17.11;77.23
55538;BME280;41383;51.418;7.286;2022-09-09T08:18:57;99176.66;;;17.17;75.90
55538;BME280;41383;51.418;7.286;2022-09-09T08:21:32;99176.34;;;17.18;76.04
55538;BME280;41383;51.418;7.286;2022-09-09T08:23:59;99176.66;;;17.25;76.14
55538;BME280;41383;51.418;7.286;2022-09-09T08:26:26;99171.13;;;17.25;75.87
55538;BME280;41383;51.418;7.286;2022-09-09T08:28:53;99170.00;;;17.35;75.16
55538;BME280;41383;51.418;7.286;2022-09-09T08:31:20;99173.25;;;17.55;74.99
55538;BME280;41383;51.418;7.286;2022-09-09T08:33:46;99177.41;;;17.79;74.45
55538;BME280;41383;51.418;7.286;2022-09-09T08:36:15;99181.09;;;17.92;72.77
55538;BME280;41383;51.418;7.286;2022-09-09T08:38:41;99177.34;;;18.06;72.46
55538;BME280;41383;51.418;7.286;2022-09-09T08:43:34;99178.75;;;18.21;71.83
55538;BME280;41383;51.418;7.286;2022-09-09T08:46:15;99188.94;;;18.29;71.48
55538;BME280;41383;51.418;7.286;2022-09-09T08:51:13;99180.00;;;18.33;69.84
55538;BME280;41383;51.418;7.286;2022-09-09T08:53:41;99176.56;;;18.36;69.53
55538;BME280;41383;51.418;7.286;2022-09-09T08:56:12;99177.81;;;18.47;69.29
55538;BME280;41383;51.418;7.286;2022-09-09T08:58:43;99178.38;;;18.62;68.33
55538;BME280;41383;51.418;7.286;2022-09-09T09:03:43;99183.88;;;18.92;67.28
55538;BME280;41383;51.418;7.286;2022-09-09T09:08:58;99185.59;;;19.06;64.99
55538;BME280;41383;51.418;7.286;2022-09-09T09:11:25;99185.28;;;18.77;64.56
55538;BME280;41383;51.418;7.286;2022-09-09T09:16:22;99189.59;;;18.87;65.19
55538;BME280;41383;51.418;7.286;2022-09-09T09:18:49;99175.47;;;18.88;64.83
55538;BME280;41383;51.418;7.286;2022-09-09T09:21:17;99185.97;;;18.95;64.44
55538;BME280;41383;51.418;7.286;2022-09-09T09:23:53;99184.94;;;18.78;64.75
55538;BME280;41383;51.418;7.286;2022-09-09T09:26:20;99186.25;;;18.51;65.02
55538;BME280;41383;51.418;7.286;2022-09-09T09:28:47;99182.47;;;18.55;64.97
55538;BME280;41383;51.418;7.286;2022-09-09T09:31:13;99189.94;;;18.55;64.81
55538;BME280;41383;51.418;7.286;2022-09-09T09:36:11;99182.78;;;18.63;64.83
55538;BME280;41383;51.418;7.286;2022-09-09T09:38:40;99181.38;;;18.78;64.61
55538;BME280;41383;51.418;7.286;2022-09-09T09:41:16;99189.22;;;18.97;63.93
55538;BME280;41383;51.418;7.286;2022-09-09T09:43:52;99190.25;;;18.84;65.26
55538;BME280;41383;51.418;7.286;2022-09-09T09:46:19;99195.22;;;18.99;64.24
55538;BME280;41383;51.418;7.286;2022-09-09T09:48:45;99189.59;;;18.87;63.54
55538;BME280;41383;51.418;7.286;2022-09-09T09:51:21;99209.13;;;18.51;63.77
55538;BME280;41383;51.418;7.286;2022-09-09T09:53:47;99217.13;;;18.44;64.82
55538;BME280;41383;51.418;7.286;2022-09-09T09:56:14;99196.44;;;18.20;65.94
55538;BME280;41383;51.418;7.286;2022-09-09T10:01:25;99200.84;;;18.51;65.43
55538;BME280;41383;51.418;7.286;2022-09-09T10:03:52;99199.81;;;18.65;65.44
55538;BME280;41383;51.418;7.286;2022-09-09T10:06:28;99202.81;;;19.02;65.43
55538;BME280;41383;51.418;7.286;2022-09-09T10:08:54;99203.50;;;18.99;64.97
55538;BME280;41383;51.418;7.286;2022-09-09T10:11:30;99193.66;;;19.11;63.64
55538;BME280;41383;51.418;7.286;2022-09-09T10:19:13;99192.84;;;19.10;63.36
55538;BME280;41383;51.418;7.286;2022-09-09T10:26:54;99198.97;;;18.95;62.31
55538;BME280;41383;51.418;7.286;2022-09-09T10:29:26;99194.00;;;19.09;62.31
55538;BME280;41383;51.418;7.286;2022-09-09T10:32:01;99195.72;;;19.23;61.72
55538;BME280;41383;51.418;7.286;2022-09-09T10:34:52;99188.13;;;19.32;59.47
55538;BME280;41383;51.418;7.286;2022-09-09T10:39:54;99176.53;;;19.60;57.72
55538;BME280;41383;51.418;7.286;2022-09-09T10:42:23;99173.91;;;19.77;57.29
55538;BME280;41383;51.418;7.286;2022-09-09T10:45:03;99166.53;;;19.68;57.16
55538;BME280;41383;51.418;7.286;2022-09-09T10:47:34;99165.78;;;19.93;55.76
55538;BME280;41383;51.418;7.286;2022-09-09T10:52:34;99170.44;;;19.67;56.46
55538;BME280;41383;51.418;7.286;2022-09-09T10:55:08;99168.38;;;19.77;56.46
55538;BME280;41383;51.418;7.286;2022-09-09T10:57:42;99154.13;;;20.00;56.65
55538;BME280;41383;51.418;7.286;2022-09-09T11:02:54;99157.78;;;19.91;56.90
55538;BME280;41383;51.418;7.286;2022-09-09T11:05:22;99161.63;;;19.87;56.43
55538;BME280;41383;51.418;7.286;2022-09-09T11:12:45;99155.31;;;20.36;54.57
55538;BME280;41383;51.418;7.286;2022-09-09T11:15:17;99171.25;;;20.14;55.37
55538;BME280;41383;51.418;7.286;2022-09-09T11:17:46;99165.16;;;20.21;55.46
55538;BME280;41383;51.418;7.286;2022-09-09T11:20:14;99159.25;;;20.48;54.65
55538;BME280;41383;51.418;7.286;2022-09-09T11:22:44;99158.69;;;20.29;55.22
55538;BME280;41383;51.418;7.286;2022-09-09T11:25:23;99159.72;;;20.25;54.58
55538;BME280;41383;51.418;7.286;2022-09-09T11:33:12;99149.81;;;20.11;55.37
55538;BME280;41383;51.418;7.286;2022-09-09T11:40:46;99157.53;;;20.30;54.52
55538;BME280;41383;51.418;7.286;2022-09-09T11:43:39;99153.03;;;20.13;54.87
55538;BME280;41383;51.418;7.286;2022-09-09T11:46:05;99156.25;;;20.15;55.31
55538;BME280;41383;51.418;7.286;2022-09-09T11:51:08;99145.38;;;19.98;55.70
55538;BME280;41383;51.418;7.286;2022-09-09T11:56:23;99148.25;;;19.42;56.86
55538;BME280;41383;51.418;7.286;2022-09-09T11:59:02;99157.59;;;19.50;56.34
55538;BME280;41383;51.418;7.286;2022-09-09T12:06:33;99159.50;;;19.37;56.84
55538;BME280;41383;51.418;7.286;2022-09-09T12:09:07;99161.31;;;19.33;58.50
55538;BME280;41383;51.418;7.286;2022-09-09T12:11:34;99166.19;;;19.36;61.91
55538;BME280;41383;51.418;7.286;2022-09-09T12:13:59;99170.50;;;19.24;63.76
55538;BME280;41383;51.418;7.286;2022-09-09T12:16:29;99177.06;;;18.68;67.17
55538;BME280;41383;51.418;7.286;2022-09-09T12:19:03;99185.22;;;18.55;69.26
55538;BME280;41383;51.418;7.286;2022-09-09T12:24:46;99198.91;;;18.04;72.90
55538;BME280;41383;51.418;7.286;2022-09-09T12:29:54;99190.28;;;18.53;72.65
55538;BME280;41383;51.418;7.286;2022-09-09T12:32:22;99184.47;;;18.76;72.92
55538;BME280;41383;51.418;7.286;2022-09-09T12:34:49;99182.19;;;18.78;75.65
55538;BME280;41383;51.418;7.286;2022-09-09T12:37:38;99181.09;;;18.71;74.96
55538;BME280;41383;51.418;7.286;2022-09-09T12:40:19;99168.28;;;18.66;73.69
55538;BME280;41383;51.418;7.286;2022-09-09T12:42:45;99167.50;;;18.87;72.92
55538;BME280;41383;51.418;7.286;2022-09-09T12:45:17;99177.28;;;19.06;71.51
55538;BME280;41383;51.418;7.286;2022-09-09T12:50:33;99177.69;;;18.95;71.85
55538;BME280;41383;51.418;7.286;2022-09-09T12:53:10;99179.38;;;18.87;71.89
55538;BME280;41383;51.418;7.286;2022-09-09T12:55:36;99187.28;;;18.67;73.14
55538;BME280;41383;51.418;7.286;2022-09-09T12:58:03;99187.66;;;18.57;74.48
55538;BME280;41383;51.418;7.286;2022-09-09T13:00:30;99183.88;;;18.40;74.87
55538;BME280;41383;51.418;7.286;2022-09-09T13:03:03;99189.00;;;18.51;76.70
55538;BME280;41383;51.418;7.286;2022-09-09T13:05:39;99182.19;;;18.78;74.96
55538;BME280;41383;51.418;7.286;2022-09-09T13:08:05;99174.34;;;18.59;76.50
55538;BME280;41383;51.418;7.286;2022-09-09T13:10:32;99171.34;;;18.95;75.90
55538;BME280;41383;51.418;7.286;2022-09-09T13:12:58;99158.19;;;19.22;75.19
55538;BME280;41383;51.418;7.286;2022-09-09T13:15:25;99151.22;;;19.37;73.86
55538;BME280;41383;51.418;7.286;2022-09-09T13:17:57;99144.22;;;19.99;72.35
55538;BME280;41383;51.418;7.286;2022-09-09T13:20:23;99139.97;;;20.01;70.77
55538;BME280;41383;51.418;7.286;2022-09-09T13:22:50;99141.81;;;19.97;71.27
55538;BME280;41383;51.418;7.286;2022-09-09T13:25:18;99144.50;;;20.18;70.30
55538;BME280;41383;51.418;7.286;2022-09-09T13:27:57;99140.81;;;20.39;68.83
55538;BME280;41383;51.418;7.286;2022-09-09T13:30:27;99148.50;;;20.46;68.82
55538;BME280;41383;51.418;7.286;2022-09-09T13:33:00;99145.53;;;20.26;68.73
55538;BME280;41383;51.418;7.286;2022-09-09T13:35:26;99145.53;;;20.14;68.99
55538;BME280;41383;51.418;7.286;2022-09-09T13:37:51;99148.41;;;19.71;68.89
55538;BME280;41383;51.418;7.286;2022-09-09T13:40:18;99151.34;;;19.75;68.35
55538;BME280;41383;51.418;7.286;2022-09-09T13:42:44;99162.44;;;19.53;68.97
55538;BME280;41383;51.418;7.286;2022-09-09T13:45:19;99167.25;;;19.22;69.70
55538;BME280;41383;51.418;7.286;2022-09-09T13:47:48;99184.03;;;18.65;71.40
55538;BME280;41383;51.418;7.286;2022-09-09T13:50:21;99182.31;;;18.13;73.02
55538;BME280;41383;51.418;7.286;2022-09-09T13:52:47;99189.06;;;17.94;75.12
55538;BME280;41383;51.418;7.286;2022-09-09T13:55:14;99181.13;;;17.74;77.69
55538;BME280;41383;51.418;7.286;2022-09-09T13:57:39;99171.38;;;17.86;77.61
55538;BME280;41383;51.418;7.286;2022-09-09T14:00:15;99157.97;;;17.67;78.00
55538;BME280;41383;51.418;7.286;2022-09-09T14:02:40;99163.44;;;17.84;78.75
55538;BME280;41383;51.418;7.286;2022-09-09T14:05:05;99161.63;;;17.97;78.16
55538;BME280;41383;51.418;7.286;2022-09-09T14:07:31;99162.22;;;18.12;77.43
55538;BME280;41383;51.418;7.286;2022-09-09T14:09:57;99156.69;;;18.12;78.58
55538;BME280;41383;51.418;7.286;2022-09-09T14:12:22;99149.44;;;18.68;78.40
55538;BME280;41383;51.418;7.286;2022-09-09T14:14:47;99152.28;;;18.81;78.23
55538;BME280;41383;51.418;7.286;2022-09-09T14:17:13;99151.41;;;19.10;76.85
55538;BME280;41383;51.418;7.286;2022-09-09T14:19:39;99134.25;;;19.05;77.46
55538;BME280;41383;51.418;7.286;2022-09-09T14:22:04;99139.63;;;19.44;77.14
55538;BME280;41383;51.418;7.286;2022-09-09T14:24:29;99138.28;;;19.29;75.08
55538;BME280;41383;51.418;7.286;2022-09-09T14:26:55;99136.53;;;19.02;75.49
55538;BME280;41383;51.418;7.286;2022-09-09T14:29:20;99137.63;;;19.32;75.90
55538;BME280;41383;51.418;7.286;2022-09-09T14:31:45;99145.44;;;19.30;74.37
55538;BME280;41383;51.418;7.286;2022-09-09T14:34:10;99139.22;;;19.33;73.39
55538;BME280;41383;51.418;7.286;2022-09-09T14:36:36;99143.13;;;19.10;73.99
55538;BME280;41383;51.418;7.286;2022-09-09T14:39:01;99139.88;;;19.08;74.50
55538;BME280;41383;51.418;7.286;2022-09-09T14:41:26;99151.59;;;18.84;74.86
55538;BME280;41383;51.418;7.286;2022-09-09T14:43:51;99143.13;;;18.89;74.35
55538;BME280;41383;51.418;7.286;2022-09-09T14:46:17;99143.69;;;19.04;74.75
55538;BME280;41383;51.418;7.286;2022-09-09T14:48:43;99154.56;;;18.78;75.94
55538;BME280;41383;51.418;7.286;2022-09-09T14:51:12;99154.91;;;18.77;79.05
55538;BME280;41383;51.418;7.286;2022-09-09T14:53:38;99151.56;;;18.71;80.29